Time;durP1;ratioP1;P1;durP2;ratioP2;P2;SDS_P1;SDS_P2;PMS_P1;PMS_P2;Temp;Humidity;BMP_temperature;BMP_pressure;BME280_temperature;BME280_humidity;BME280_pressure;Samples;Min_cycle;Max_cycle;Signal;HPM_P1;HPM_P2
2020/12/30 00:00:45;;;;;;;2.23;1.10;;;;;;;8.75;58.01;97691.99;251920;1132;114475;-84
2020/12/30 00:05:48;;;;;;;2.33;1.23;;;;;;;8.67;57.78;97697.05;251748;1132;114933;-84
2020/12/30 00:10:50;;;;;;;2.00;1.20;;;;;;;8.57;58.26;97702.20;251838;1135;114630;-84
2020/12/30 00:15:53;;;;;;;1.25;0.93;;;;;;;8.48;58.09;97713.48;251901;1134;114712;-84
2020/12/30 00:20:56;;;;;;;2.73;1.40;;;;;;;8.40;58.72;97719.37;251699;1132;114900;-84
2020/12/30 00:26:02;;;;;;;2.17;1.30;;;;;;;8.29;58.52;97725.44;251747;1132;114833;-84
2020/12/30 00:31:04;;;;;;;1.60;1.17;;;;;;;8.14;58.68;97734.50;251670;1132;114809;-83
2020/12/30 00:36:09;;;;;;;2.20;1.20;;;;;;;7.99;58.67;97733.83;251723;1133;114626;-84
2020/12/30 00:41:14;;;;;;;2.35;1.17;;;;;;;7.87;58.16;97736.50;251686;1132;114672;-84
2020/12/30 00:46:17;;;;;;;2.47;1.50;;;;;;;7.74;58.91;97732.08;251631;1133;114489;-83
2020/12/30 00:51:23;;;;;;;3.40;1.70;;;;;;;7.61;58.50;97733.93;252048;1134;114755;-84
2020/12/30 00:56:26;;;;;;;2.00;1.40;;;;;;;7.48;59.21;97741.89;251733;1132;114540;-83
2020/12/30 01:01:29;;;;;;;2.20;1.20;;;;;;;7.36;58.87;97740.09;251600;1133;115151;-84
2020/12/30 01:06:56;;;;;;;2.12;1.37;;;;;;;7.20;59.13;97735.03;252031;1132;114776;-84
2020/12/30 01:12:03;;;;;;;2.77;1.57;;;;;;;7.05;59.46;97736.08;251875;1141;116037;-84
2020/12/30 01:17:06;;;;;;;2.37;1.70;;;;;;;6.93;58.97;97734.27;251793;1132;114484;-84
2020/12/30 01:22:08;;;;;;;5.40;3.03;;;;;;;6.89;59.96;97728.34;251877;1132;114628;-84
2020/12/30 01:27:10;;;;;;;4.97;2.57;;;;;;;6.88;60.09;97724.01;251497;1132;114876;-84
2020/12/30 01:32:13;;;;;;;4.30;2.67;;;;;;;6.91;60.66;97720.31;251905;1134;115070;-84
2020/12/30 01:37:15;;;;;;;4.17;2.90;;;;;;;6.93;60.07;97723.69;251896;1132;114913;-84
2020/12/30 01:42:17;;;;;;;4.67;2.63;;;;;;;6.92;60.86;97716.71;251844;1134;114693;-84
2020/12/30 01:47:20;;;;;;;3.63;2.43;;;;;;;6.84;60.21;97726.02;251897;1133;115927;-84
2020/12/30 01:52:22;;;;;;;5.33;2.63;;;;;;;6.78;60.16;97707.08;251757;1132;115100;-84
2020/12/30 01:57:25;;;;;;;4.58;2.50;;;;;;;6.70;60.70;97709.41;251580;1132;114702;-84
2020/12/30 02:02:29;;;;;;;4.80;2.97;;;;;;;6.64;60.84;97718.59;251449;1133;114627;-85
2020/12/30 02:07:31;;;;;;;7.97;3.92;;;;;;;6.61;60.60;97714.34;251874;1132;114737;-82
2020/12/30 02:12:34;;;;;;;7.73;3.87;;;;;;;6.64;60.70;97708.86;251668;1134;114898;-82
2020/12/30 02:17:36;;;;;;;8.53;4.47;;;;;;;6.65;60.74;97704.41;251870;1132;115044;-82
2020/12/30 02:22:40;;;;;;;9.05;3.80;;;;;;;6.56;61.72;97705.89;251782;1132;114738;-82
2020/12/30 02:27:43;;;;;;;7.50;4.23;;;;;;;6.48;61.76;97686.20;251865;1132;114362;-82
2020/12/30 02:32:48;;;;;;;8.50;4.57;;;;;;;6.48;62.18;97702.90;248585;1132;114349;-84
2020/12/30 02:37:51;;;;;;;9.88;4.92;;;;;;;6.53;61.42;97697.33;251551;1132;114772;-83
2020/12/30 02:42:53;;;;;;;9.30;4.50;;;;;;;6.60;61.62;97694.16;250938;1132;114648;-84
2020/12/30 02:47:56;;;;;;;8.60;4.40;;;;;;;6.75;61.55;97701.99;250557;1134;115174;-81
2020/12/30 02:52:58;;;;;;;10.07;4.80;;;;;;;6.85;62.06;97668.69;251798;1132;114890;-83
2020/12/30 02:58:00;;;;;;;8.33;4.57;;;;;;;6.92;62.46;97695.55;251858;1132;114828;-83
2020/12/30 03:03:03;;;;;;;8.33;4.90;;;;;;;7.00;62.06;97706.47;251806;1135;114718;-84
2020/12/30 03:08:05;;;;;;;8.73;4.60;;;;;;;7.00;61.66;97687.95;251810;1134;114495;-84
2020/12/30 03:13:08;;;;;;;8.95;4.45;;;;;;;6.95;61.92;97692.70;251745;1133;114714;-84
2020/12/30 03:18:12;;;;;;;7.55;3.87;;;;;;;6.90;62.23;97681.61;251800;1135;114616;-84
2020/12/30 03:23:14;;;;;;;7.00;3.83;;;;;;;6.92;62.04;97687.62;251633;1132;114912;-83
2020/12/30 03:28:17;;;;;;;7.33;3.50;;;;;;;6.86;61.70;97692.39;251806;1132;114796;-83
2020/12/30 03:33:19;;;;;;;6.70;3.73;;;;;;;6.78;62.02;97692.05;251710;1132;114194;-84
2020/12/30 03:38:21;;;;;;;7.92;4.30;;;;;;;6.68;61.94;97690.15;251935;1132;114349;-84
2020/12/30 03:43:23;;;;;;;6.30;3.80;;;;;;;6.57;61.50;97696.16;251906;1134;114594;-83
2020/12/30 03:48:26;;;;;;;7.00;3.83;;;;;;;6.45;61.50;97695.17;252003;1132;114449;-84
2020/12/30 03:53:28;;;;;;;4.87;3.00;;;;;;;6.33;62.01;97698.66;251876;1134;115212;-84
2020/12/30 03:58:30;;;;;;;7.97;4.20;;;;;;;6.26;62.03;97692.09;251904;1132;114404;-85
2020/12/30 04:03:33;;;;;;;7.30;3.92;;;;;;;6.24;62.11;97693.97;251907;1134;114607;-84
2020/12/30 04:08:35;;;;;;;8.83;4.47;;;;;;;6.24;61.55;97678.97;251727;1133;114663;-83
2020/12/30 04:13:37;;;;;;;7.87;4.50;;;;;;;6.26;62.28;97677.08;251990;1134;114563;-82
2020/12/30 04:18:40;;;;;;;10.27;4.50;;;;;;;6.24;62.04;97678.13;251700;1134;114436;-82
2020/12/30 04:23:42;;;;;;;9.83;5.07;;;;;;;6.21;61.60;97681.80;251648;1132;114702;-83
2020/12/30 04:28:45;;;;;;;8.88;4.75;;;;;;;6.15;61.89;97690.16;251876;1132;114687;-83
2020/12/30 04:33:47;;;;;;;9.73;4.47;;;;;;;6.04;61.17;97698.76;251907;1134;114478;-83
2020/12/30 04:38:50;;;;;;;13.67;5.40;;;;;;;5.93;61.52;97685.42;251844;1134;115180;-83
2020/12/30 04:43:52;;;;;;;12.10;5.50;;;;;;;5.86;61.63;97698.13;250872;1133;115312;-84
2020/12/30 04:48:57;;;;;;;10.87;5.23;;;;;;;5.79;62.82;97699.48;251659;1132;114870;-83
2020/12/30 04:54:00;;;;;;;8.50;4.80;;;;;;;5.69;61.88;97693.09;251908;1134;115301;-84
2020/12/30 04:59:07;;;;;;;10.70;4.75;;;;;;;5.58;62.25;97690.30;251830;1133;114723;-84
2020/12/30 05:04:11;;;;;;;12.57;5.50;;;;;;;5.50;62.60;97697.84;251903;1133;115585;-84
2020/12/30 05:09:15;;;;;;;9.63;4.92;;;;;;;5.40;62.69;97698.44;251767;1133;114694;-84
2020/12/30 05:14:18;;;;;;;15.10;6.62;;;;;;;5.35;63.06;97713.69;251869;1134;114458;-83
2020/12/30 05:19:20;;;;;;;12.35;6.00;;;;;;;5.31;61.77;97699.00;251960;1132;115668;-85
2020/12/30 05:24:23;;;;;;;13.30;6.23;;;;;;;5.36;62.11;97720.66;252027;1134;115309;-84
2020/12/30 05:29:26;;;;;;;14.33;6.83;;;;;;;5.34;63.06;97716.44;251305;1134;115080;-85
2020/12/30 05:34:30;;;;;;;11.73;5.77;;;;;;;5.34;62.20;97714.64;251141;1132;115096;-85
2020/12/30 05:39:34;;;;;;;11.00;5.83;;;;;;;5.31;61.96;97712.19;251773;1132;114653;-85
2020/12/30 05:44:36;;;;;;;11.10;6.40;;;;;;;5.26;62.05;97708.98;251903;1134;114666;-87
2020/12/30 05:49:39;;;;;;;18.30;7.00;;;;;;;5.21;63.19;97713.70;251970;1133;116067;-85
2020/12/30 05:54:49;;;;;;;13.37;7.50;;;;;;;5.17;63.28;97705.13;251956;1134;114712;-87
2020/12/30 05:59:54;;;;;;;14.73;7.17;;;;;;;5.17;62.52;97701.66;251971;1134;114574;-83
2020/12/30 06:05:25;;;;;;;13.15;7.22;;;;;;;5.22;64.13;97704.84;251750;1132;114968;-86
2020/12/30 06:10:28;;;;;;;12.73;7.30;;;;;;;5.27;63.25;97709.85;251854;1132;114690;-85
2020/12/30 06:15:32;;;;;;;13.55;8.30;;;;;;;5.33;64.14;97702.41;251891;1134;114826;-85
2020/12/30 06:20:38;;;;;;;17.42;7.90;;;;;;;5.41;63.91;97702.77;251928;1132;114787;-85
2020/12/30 06:25:41;;;;;;;;;;;;;;;5.50;64.02;97713.67;249552;1134;114938;-84
2020/12/30 06:30:45;;;;;;;14.27;7.77;;;;;;;5.54;63.74;97710.77;251894;1132;104388;-85
2020/12/30 06:35:54;;;;;;;16.77;8.75;;;;;;;5.61;63.77;97724.42;251905;1132;114483;-85
2020/12/30 06:40:58;;;;;;;17.60;9.03;;;;;;;5.63;63.60;97712.80;251666;1132;115009;-85
2020/12/30 06:46:01;;;;;;;16.80;8.73;;;;;;;5.61;63.32;97705.95;251815;1132;114991;-85
2020/12/30 06:51:16;;;;;;;15.93;9.10;;;;;;;5.59;63.67;97707.82;251861;1132;115526;-85
2020/12/30 06:56:38;;;;;;;13.43;8.05;;;;;;;5.58;63.48;97700.86;251732;1132;114888;-84
2020/12/30 07:01:57;;;;;;;16.85;9.08;;;;;;;5.57;64.16;97696.50;252066;1132;114962;-85
2020/12/30 07:07:00;;;;;;;18.50;8.87;;;;;;;5.55;63.70;97701.05;251473;1132;114903;-85
2020/12/30 07:12:07;;;;;;;15.37;8.73;;;;;;;5.55;64.40;97714.24;251229;1134;114919;-85
2020/12/30 07:17:10;;;;;;;19.57;9.63;;;;;;;5.57;64.05;97707.06;252020;1133;114883;-83
2020/12/30 07:22:13;;;;;;;18.20;9.57;;;;;;;5.64;64.25;97721.59;251991;1132;114690;-83
2020/12/30 07:27:16;;;;;;;17.87;9.35;;;;;;;5.72;63.70;97724.58;251880;1132;114921;-84
2020/12/30 07:32:19;;;;;;;15.97;9.50;;;;;;;5.77;63.33;97721.63;251012;1132;114938;-80
2020/12/30 07:37:21;;;;;;;16.13;9.70;;;;;;;5.82;64.59;97730.13;251798;1132;114741;-84
2020/12/30 07:42:24;;;;;;;16.87;9.43;;;;;;;5.82;64.01;97735.40;251152;1135;114687;-85
2020/12/30 07:47:30;;;;;;;17.63;9.40;;;;;;;5.81;63.72;97744.24;251994;1134;114516;-84
2020/12/30 07:52:33;;;;;;;22.55;11.00;;;;;;;5.79;63.64;97746.99;251994;1132;114712;-85
2020/12/30 07:57:35;;;;;;;17.57;10.60;;;;;;;5.78;64.12;97745.31;251325;1132;115326;-85
2020/12/30 08:02:38;;;;;;;21.17;10.10;;;;;;;5.77;64.62;97735.67;251977;1132;114833;-85
2020/12/30 08:07:40;;;;;;;18.67;10.10;;;;;;;5.72;64.11;97729.02;252064;1133;114711;-85
2020/12/30 08:12:43;;;;;;;18.20;10.45;;;;;;;5.68;64.47;97723.08;251909;1132;114821;-86
2020/12/30 08:17:46;;;;;;;21.13;10.73;;;;;;;5.69;63.71;97720.33;249973;1134;116547;-87
2020/12/30 08:22:49;;;;;;;18.93;9.97;;;;;;;5.73;64.75;97715.70;251643;1134;115270;-84
2020/12/30 08:27:51;;;;;;;15.90;10.43;;;;;;;5.82;63.58;97722.20;249980;1132;116566;-83
2020/12/30 08:33:08;;;;;;;16.30;9.70;;;;;;;5.87;64.01;97725.38;251832;1132;115124;-81
2020/12/30 08:38:21;;;;;;;15.37;9.20;;;;;;;5.89;64.48;97723.50;251911;1131;114888;-83
2020/12/30 08:43:37;;;;;;;17.32;9.65;;;;;;;5.89;64.00;97726.98;251734;1133;114369;-82
2020/12/30 08:48:46;;;;;;;17.37;9.53;;;;;;;5.91;64.17;97740.10;251799;1134;114917;-81
2020/12/30 08:53:48;;;;;;;18.17;10.80;;;;;;;5.96;63.96;97729.27;251693;1133;115204;-80
2020/12/30 08:59:00;;;;;;;22.90;11.73;;;;;;;6.00;64.74;97736.87;251792;1134;115089;-81
2020/12/30 09:04:11;;;;;;;24.43;12.10;;;;;;;6.01;64.54;97735.08;251908;1132;115049;-82
2020/12/30 09:09:18;;;;;;;18.30;11.43;;;;;;;5.99;64.98;97750.20;251900;1133;115846;-83
2020/12/30 09:14:22;;;;;;;22.33;12.53;;;;;;;6.01;64.99;97746.52;251849;1132;114908;-84
2020/12/30 09:19:25;;;;;;;26.20;13.25;;;;;;;6.06;64.58;97733.01;252084;1133;115222;-84
2020/12/30 09:24:35;;;;;;;25.87;14.03;;;;;;;6.14;64.96;97742.11;250807;1134;114710;-90
2020/12/30 09:29:37;;;;;;;26.05;13.90;;;;;;;6.19;65.44;97730.42;249072;1132;114949;-87
2020/12/30 09:34:39;;;;;;;22.87;13.00;;;;;;;6.23;65.60;97723.98;249508;1135;115248;-82
2020/12/30 09:39:45;;;;;;;20.93;12.63;;;;;;;6.25;65.64;97733.52;251820;1135;114756;-82
2020/12/30 09:44:48;;;;;;;31.47;16.87;;;;;;;6.26;65.52;97731.72;251839;1133;115187;-86
2020/12/30 09:49:50;;;;;;;31.03;17.40;;;;;;;6.24;64.70;97713.30;251953;1133;114999;-82
2020/12/30 09:54:53;;;;;;;32.70;18.73;;;;;;;6.23;64.58;97722.19;251937;1132;114942;-84
2020/12/30 09:59:56;;;;;;;33.30;18.50;;;;;;;6.23;64.89;97711.62;251889;1134;114792;-86
2020/12/30 10:04:58;;;;;;;32.57;18.30;;;;;;;6.24;65.72;97715.95;251280;1134;114781;-87
2020/12/30 10:10:00;;;;;;;35.23;19.63;;;;;;;6.26;65.90;97707.94;251913;1133;115024;-86
2020/12/30 10:15:09;;;;;;;36.17;17.97;;;;;;;6.34;65.85;97706.47;252013;1139;115089;-86
2020/12/30 10:20:13;;;;;;;34.70;17.80;;;;;;;6.47;66.46;97700.38;252087;1133;115036;-88
2020/12/30 10:25:15;;;;;;;25.80;15.25;;;;;;;6.55;66.11;97693.61;251956;1133;115091;-87
2020/12/30 10:30:18;;;;;;;24.80;15.15;;;;;;;6.60;66.62;97678.30;251839;1132;115260;-85
2020/12/30 10:35:20;;;;;;;28.20;15.57;;;;;;;6.66;65.66;97673.53;251886;1132;114976;-87
2020/12/30 10:40:23;;;;;;;31.10;16.43;;;;;;;6.72;66.21;97663.39;251054;1135;114885;-87
2020/12/30 10:45:25;;;;;;;25.73;15.47;;;;;;;6.78;66.55;97664.77;252058;1135;114793;-87
2020/12/30 10:50:27;;;;;;;29.25;16.67;;;;;;;6.84;65.69;97657.27;251997;1133;114835;-83
2020/12/30 10:55:30;;;;;;;28.70;18.60;;;;;;;6.87;65.65;97645.64;250076;1132;115027;-87
2020/12/30 11:00:32;;;;;;;33.67;20.53;;;;;;;6.86;66.32;97646.57;251869;1133;115608;-86
2020/12/30 11:05:35;;;;;;;43.37;24.80;;;;;;;6.85;65.91;97636.95;251773;1132;114865;-86
2020/12/30 11:10:37;;;;;;;46.37;26.27;;;;;;;6.94;65.49;97638.13;251551;1134;115011;-84
2020/12/30 11:15:39;;;;;;;46.30;27.75;;;;;;;6.98;65.74;97636.95;251427;1135;115619;-83
2020/12/30 11:20:42;;;;;;;49.23;28.33;;;;;;;7.00;65.22;97637.70;252006;1132;115410;-85
2020/12/30 11:25:45;;;;;;;45.23;26.87;;;;;;;7.01;65.69;97642.88;251588;1134;116502;-85
2020/12/30 11:30:48;;;;;;;44.53;25.43;;;;;;;6.99;65.68;97646.57;251971;1134;114970;-84
2020/12/30 11:35:50;;;;;;;39.80;23.47;;;;;;;6.98;65.26;97642.24;251850;1134;114803;-85
2020/12/30 11:40:52;;;;;;;36.28;20.50;;;;;;;6.97;65.54;97648.49;251633;1135;114863;-85
2020/12/30 11:45:58;;;;;;;36.03;19.07;;;;;;;6.98;65.74;97660.76;251972;1133;115154;-84
2020/12/30 11:51:01;;;;;;;30.10;17.90;;;;;;;7.00;66.22;97672.09;250497;1133;114767;-84
2020/12/30 11:56:04;;;;;;;30.73;16.63;;;;;;;7.01;66.31;97673.77;251733;1132;114919;-84
2020/12/30 12:01:09;;;;;;;28.25;15.53;;;;;;;7.05;65.43;97675.24;251740;1133;114607;-83
2020/12/30 12:06:11;;;;;;;25.52;14.87;;;;;;;7.09;66.19;97679.36;251858;1134;115134;-83
2020/12/30 12:11:14;;;;;;;26.33;14.67;;;;;;;7.16;65.84;97677.13;251942;1134;115110;-83
2020/12/30 12:16:16;;;;;;;25.70;14.23;;;;;;;7.18;65.77;97673.44;250980;1135;116371;-84
2020/12/30 12:21:18;;;;;;;25.73;15.47;;;;;;;7.18;65.66;97669.95;249817;1132;115942;-85
2020/12/30 12:26:23;;;;;;;27.90;16.05;;;;;;;7.16;65.48;97670.04;251779;1132;116597;-85
2020/12/30 12:31:25;;;;;;;27.80;15.68;;;;;;;7.20;65.90;97679.48;251678;1132;114693;-88
2020/12/30 12:36:28;;;;;;;26.67;15.07;;;;;;;7.19;66.54;97683.05;250346;1132;114973;-87
2020/12/30 12:41:30;;;;;;;28.10;14.70;;;;;;;7.16;66.29;97695.66;250059;1133;115156;-87
2020/12/30 12:46:32;;;;;;;33.07;15.03;;;;;;;7.14;66.95;97698.42;250486;1132;114876;-87
2020/12/30 12:51:36;;;;;;;31.83;14.40;;;;;;;7.18;66.37;97691.95;252019;1132;116463;-88
2020/12/30 12:56:39;;;;;;;29.45;14.55;;;;;;;7.24;66.85;97693.33;250002;1132;115011;-86
2020/12/30 13:01:45;;;;;;;27.97;14.40;;;;;;;7.28;66.39;97700.09;251766;1132;115071;-87
2020/12/30 13:06:48;;;;;;;23.57;13.77;;;;;;;7.29;66.96;97699.97;251017;1134;118744;-88
2020/12/30 13:11:50;;;;;;;25.50;13.63;;;;;;;7.25;66.48;97705.60;249138;1132;115422;-87
2020/12/30 13:16:53;;;;;;;21.67;13.47;;;;;;;7.22;67.62;97705.81;251171;1133;115084;-84
2020/12/30 13:21:55;;;;;;;23.80;14.98;;;;;;;7.20;67.63;97698.00;251753;1132;114850;-84
2020/12/30 13:26:58;;;;;;;28.90;15.13;;;;;;;7.17;67.47;97698.20;252083;1132;114825;-83
2020/12/30 13:32:00;;;;;;;31.13;15.77;;;;;;;7.14;67.21;97706.36;252045;1135;115220;-77
2020/12/30 13:37:03;;;;;;;30.70;14.73;;;;;;;7.15;67.82;97713.33;252077;1132;114963;-87
2020/12/30 13:42:11;;;;;;;25.23;14.20;;;;;;;7.19;66.95;97717.45;251994;1133;115147;-88
2020/12/30 13:47:13;;;;;;;25.53;15.00;;;;;;;7.22;67.22;97732.27;251826;1133;114978;-87
2020/12/30 13:52:19;;;;;;;23.30;13.33;;;;;;;7.25;67.78;97726.77;251783;1134;116255;-88
2020/12/30 13:57:21;;;;;;;22.83;14.20;;;;;;;7.24;67.60;97722.44;251702;1132;115368;-89
2020/12/30 14:02:24;;;;;;;26.73;15.67;;;;;;;7.24;67.56;97731.22;251727;1132;115186;-87
2020/12/30 14:07:29;;;;;;;27.70;16.77;;;;;;;7.19;67.00;97735.13;251714;1132;115049;-87
2020/12/30 14:12:31;;;;;;;;;;;;;;;7.15;67.32;97753.02;251900;1132;115692;-87
2020/12/30 14:17:34;;;;;;;29.17;16.87;;;;;;;7.09;67.81;97745.48;252017;1133;102525;-87
2020/12/30 14:22:36;;;;;;;33.20;20.67;;;;;;;7.10;67.99;97747.20;251983;1131;114975;-86
2020/12/30 14:27:38;;;;;;;40.60;20.93;;;;;;;7.13;67.50;97754.06;251507;1132;115060;-87
2020/12/30 14:32:40;;;;;;;36.87;20.70;;;;;;;7.16;67.45;97753.86;251994;1133;115290;-87
2020/12/30 14:37:43;;;;;;;36.53;20.35;;;;;;;7.20;67.30;97757.98;252168;1133;115104;-87
2020/12/30 14:42:45;;;;;;;33.97;19.50;;;;;;;7.20;67.83;97758.85;251742;1132;115650;-87
2020/12/30 14:47:48;;;;;;;35.07;19.20;;;;;;;7.18;67.88;97758.09;251990;1132;115002;-87
2020/12/30 14:52:52;;;;;;;33.65;19.02;;;;;;;7.17;68.31;97759.06;252009;1132;115132;-87
2020/12/30 14:57:55;;;;;;;30.33;18.97;;;;;;;7.15;67.33;97768.89;251953;1133;114828;-81
2020/12/30 15:02:57;;;;;;;34.27;21.07;;;;;;;7.14;68.11;97779.59;251080;1134;114910;-78
2020/12/30 15:08:00;;;;;;;29.37;20.32;;;;;;;7.14;67.96;97796.30;251866;1132;115256;-78
2020/12/30 15:13:03;;;;;;;38.00;21.03;;;;;;;7.16;68.27;97794.38;251976;1133;115538;-86
2020/12/30 15:18:05;;;;;;;34.80;21.27;;;;;;;7.18;67.75;97787.20;252104;1134;115471;-82
2020/12/30 15:23:08;;;;;;;36.40;22.67;;;;;;;7.18;68.35;97789.00;251922;1131;115087;-82
2020/12/30 15:28:10;;;;;;;38.58;24.10;;;;;;;7.19;67.91;97795.98;251924;1132;115087;-81
2020/12/30 15:33:12;;;;;;;38.67;24.73;;;;;;;7.17;68.55;97805.80;251355;1135;115679;-92
2020/12/30 15:38:15;;;;;;;41.37;25.30;;;;;;;7.14;67.70;97798.11;251509;1132;114795;-95
2020/12/30 15:43:17;;;;;;;43.80;25.70;;;;;;;7.09;68.27;97811.63;250699;1135;115012;-94
2020/12/30 15:48:19;;;;;;;33.60;21.37;;;;;;;7.08;68.54;97817.88;250927;1134;115684;-81
2020/12/30 15:53:22;;;;;;;41.07;24.73;;;;;;;7.07;67.86;97817.03;251824;1134;114914;-83
2020/12/30 15:58:24;;;;;;;39.53;25.83;;;;;;;7.02;69.01;97835.00;251813;1132;115067;-93
2020/12/30 16:03:28;;;;;;;44.33;27.20;;;;;;;7.01;69.06;97843.05;251775;1134;115370;-79
2020/12/30 16:08:31;;;;;;;45.80;28.13;;;;;;;6.97;68.39;97844.20;251948;1132;116135;-85
2020/12/30 16:13:34;;;;;;;41.77;25.20;;;;;;;6.91;68.46;97855.19;252003;1134;114926;-87
2020/12/30 16:18:36;;;;;;;41.15;24.50;;;;;;;6.82;68.64;97862.76;251689;1135;115287;-80
2020/12/30 16:23:39;;;;;;;41.93;24.87;;;;;;;6.79;67.73;97876.21;251993;1132;115171;-80
2020/12/30 16:28:41;;;;;;;42.27;26.03;;;;;;;6.81;69.17;97871.66;251825;1132;115849;-81
2020/12/30 16:33:45;;;;;;;44.87;25.97;;;;;;;6.85;68.77;97881.07;251928;1135;115297;-81
2020/12/30 16:38:47;;;;;;;45.07;27.73;;;;;;;6.90;69.05;97882.59;251728;1133;115848;-81
2020/12/30 16:43:50;;;;;;;43.90;27.02;;;;;;;6.85;68.91;97894.30;252044;1133;115509;-80
2020/12/30 16:48:52;;;;;;;43.30;27.87;;;;;;;6.81;69.31;97879.58;251982;1133;114506;-89
2020/12/30 16:53:55;;;;;;;43.23;26.63;;;;;;;6.76;69.07;97894.91;251903;1133;114971;-89
2020/12/30 16:58:57;;;;;;;48.83;29.50;;;;;;;6.76;69.10;97901.97;252124;1132;114934;-80
2020/12/30 17:04:00;;;;;;;40.17;27.30;;;;;;;6.78;68.96;97900.94;252045;1133;115841;-80
2020/12/30 17:09:02;;;;;;;47.45;28.57;;;;;;;6.78;69.13;97906.22;251076;1132;115190;-86
2020/12/30 17:14:05;;;;;;;52.03;30.47;;;;;;;6.78;68.35;97908.02;248166;1132;115291;-85
2020/12/30 17:19:07;;;;;;;51.90;31.47;;;;;;;6.75;68.77;97902.93;251763;1132;115523;-86
2020/12/30 17:24:09;;;;;;;48.43;30.43;;;;;;;6.74;68.95;97899.44;251795;1134;116087;-87
2020/12/30 17:29:12;;;;;;;57.17;31.40;;;;;;;6.67;69.00;97908.72;251879;1132;114837;-86
2020/12/30 17:34:18;;;;;;;56.83;34.27;;;;;;;6.67;68.71;97910.52;250860;1134;114949;-88
2020/12/30 17:39:21;;;;;;;56.47;34.33;;;;;;;6.69;68.89;97921.83;251945;1132;114901;-88
2020/12/30 17:44:28;;;;;;;59.60;37.10;;;;;;;6.78;69.12;97934.46;251633;1132;115923;-82
2020/12/30 17:49:30;;;;;;;61.03;37.03;;;;;;;6.76;68.88;97937.22;251809;1132;115072;-81
2020/12/30 17:54:33;;;;;;;58.53;35.67;;;;;;;6.72;68.48;97948.91;251829;1134;114993;-81
2020/12/30 17:59:36;;;;;;;58.25;37.55;;;;;;;6.69;68.50;97946.50;251796;1133;115072;-82
2020/12/30 18:04:38;;;;;;;59.47;35.00;;;;;;;6.62;68.69;97955.73;251831;1134;115631;-81
2020/12/30 18:09:41;;;;;;;59.40;37.50;;;;;;;6.62;68.74;97963.66;251877;1134;115330;-81
2020/12/30 18:14:43;;;;;;;59.17;37.00;;;;;;;6.70;69.83;97956.11;251873;1134;114816;-81
2020/12/30 18:19:46;;;;;;;58.20;36.60;;;;;;;6.80;69.90;97959.87;251853;1132;115669;-81
2020/12/30 18:24:49;;;;;;;55.98;37.15;;;;;;;6.82;69.79;97951.82;251812;1134;114875;-81
2020/12/30 18:29:51;;;;;;;58.37;36.80;;;;;;;6.83;69.46;97957.03;252078;1132;115837;-81
2020/12/30 18:34:53;;;;;;;57.93;37.20;;;;;;;6.85;69.93;97954.27;251995;1132;115202;-87
2020/12/30 18:39:55;;;;;;;55.57;36.60;;;;;;;6.82;69.82;97950.02;251765;1132;115446;-82
2020/12/30 18:44:58;;;;;;;56.60;36.17;;;;;;;6.83;68.94;97958.83;251850;1135;115233;-84
2020/12/30 18:50:01;;;;;;;54.70;36.27;;;;;;;6.84;69.69;97955.23;251562;1133;115676;-85
2020/12/30 18:55:06;;;;;;;58.13;37.23;;;;;;;6.86;69.53;97964.77;251911;1135;116212;-89
2020/12/30 19:00:09;;;;;;;57.25;36.77;;;;;;;6.88;69.28;97959.37;251925;1133;115143;-90
2020/12/30 19:05:12;;;;;;;57.97;36.30;;;;;;;6.86;69.33;97956.84;250833;1132;116042;-86
2020/12/30 19:10:15;;;;;;;57.53;36.23;;;;;;;6.85;69.50;97962.20;251633;1132;116430;-89
2020/12/30 19:15:17;;;;;;;58.30;36.28;;;;;;;6.86;69.35;97956.84;252023;1132;114940;-79
2020/12/30 19:20:20;;;;;;;56.37;35.77;;;;;;;6.86;69.55;97951.55;251846;1132;114648;-87
2020/12/30 19:25:22;;;;;;;54.50;35.17;;;;;;;6.89;69.22;97961.05;251766;1132;114801;-82
2020/12/30 19:30:26;;;;;;;53.53;33.87;;;;;;;6.93;69.25;97961.70;251910;1134;115195;-84
2020/12/30 19:35:29;;;;;;;54.43;35.57;;;;;;;7.01;69.28;97970.02;251743;1132;115750;-75
2020/12/30 19:40:32;;;;;;;53.85;36.28;;;;;;;7.05;68.91;97982.92;251521;1135;115268;-78
2020/12/30 19:45:36;;;;;;;54.30;37.50;;;;;;;7.07;68.89;97988.14;251845;1133;115202;-81
2020/12/30 19:50:40;;;;;;;55.73;37.42;;;;;;;7.07;69.19;97986.34;250360;1132;115528;-85
2020/12/30 19:55:44;;;;;;;54.50;35.63;;;;;;;7.06;69.48;97989.06;251472;1132;115095;-84
2020/12/30 20:00:49;;;;;;;55.57;35.10;;;;;;;7.01;69.14;97997.30;251659;1134;115812;-84
2020/12/30 20:05:51;;;;;;;57.25;36.60;;;;;;;7.01;68.72;97993.81;250050;1132;117429;-84
2020/12/30 20:10:57;;;;;;;54.53;35.43;;;;;;;7.04;69.12;98001.56;251412;1133;115664;-83
2020/12/30 20:15:59;;;;;;;60.70;38.57;;;;;;;7.06;68.93;98008.42;251930;1132;114907;-84
2020/12/30 20:21:01;;;;;;;57.97;37.37;;;;;;;7.10;69.22;98019.69;252006;1134;115046;-85
2020/12/30 20:26:04;;;;;;;59.13;38.73;;;;;;;7.10;69.57;98020.53;251557;1132;115825;-81
2020/12/30 20:31:06;;;;;;;57.27;37.42;;;;;;;7.09;69.59;98047.06;252051;1132;116448;-77
2020/12/30 20:36:16;;;;;;;61.43;38.60;;;;;;;7.04;68.85;98046.53;251910;1135;114842;-83
2020/12/30 20:41:21;;;;;;;64.30;40.87;;;;;;;7.03;69.91;98050.97;251945;1132;115596;-81
2020/12/30 20:46:25;;;;;;;66.92;40.48;;;;;;;7.03;69.86;98047.45;251970;1132;117227;-82
2020/12/30 20:51:29;;;;;;;66.13;41.43;;;;;;;7.02;69.48;98061.63;252016;1134;117408;-74
2020/12/30 20:56:32;;;;;;;72.80;46.18;;;;;;;7.02;69.01;98057.19;251627;1132;115499;-86
2020/12/30 21:01:57;;;;;;;77.33;48.20;;;;;;;7.03;69.44;98060.68;250532;1133;115645;-76
2020/12/30 21:07:04;;;;;;;76.67;48.40;;;;;;;7.02;69.22;98073.06;251362;1132;114988;-83
2020/12/30 21:12:13;;;;;;;72.83;48.23;;;;;;;6.99;68.77;98082.98;250511;1132;115149;-86
2020/12/30 21:17:16;;;;;;;;;;;;;;;6.94;69.77;98090.38;250370;1134;114924;-84
2020/12/30 21:22:18;;;;;;;82.40;50.98;;;;;;;6.86;69.35;98094.35;251856;1132;102333;-84
2020/12/30 21:27:25;;;;;;;77.13;50.90;;;;;;;6.82;69.49;98100.75;251805;1132;114878;-84
2020/12/30 21:32:32;;;;;;;86.70;51.90;;;;;;;6.87;69.75;98093.39;252008;1132;115297;-84
2020/12/30 21:37:34;;;;;;;82.60;51.37;;;;;;;6.92;69.42;98100.19;251658;1130;115028;-84
2020/12/30 21:42:37;;;;;;;78.90;49.10;;;;;;;6.93;69.02;98105.40;251789;1133;115837;-84
2020/12/30 21:47:41;;;;;;;76.87;48.63;;;;;;;6.92;69.30;98105.48;250600;1132;115028;-84
2020/12/30 21:52:45;;;;;;;83.70;49.97;;;;;;;6.91;69.49;98119.66;251862;1133;115178;-83
2020/12/30 21:57:48;;;;;;;;;;;;;;;6.87;68.91;98119.84;251600;1132;114990;-83
2020/12/30 22:02:50;;;;;;;85.20;49.47;;;;;;;6.86;69.61;98118.16;251983;1132;102585;-83
2020/12/30 22:07:52;;;;;;;85.40;52.00;;;;;;;6.85;69.46;98127.01;251687;1132;114835;-83
2020/12/30 22:12:55;;;;;;;84.40;50.92;;;;;;;6.88;69.80;98129.47;251578;1134;115179;-83
2020/12/30 22:17:57;;;;;;;92.50;53.30;;;;;;;6.87;68.72;98138.36;251924;1133;114951;-83
2020/12/30 22:22:59;;;;;;;85.07;50.63;;;;;;;6.87;69.46;98137.51;251775;1134;114663;-84
2020/12/30 22:28:02;;;;;;;80.40;49.25;;;;;;;6.84;69.15;98142.98;250065;1133;115171;-87
2020/12/30 22:33:04;;;;;;;87.47;50.93;;;;;;;6.79;69.29;98134.47;250496;1132;115263;-88
2020/12/30 22:38:07;;;;;;;85.72;53.02;;;;;;;6.73;69.76;98138.36;251665;1132;114770;-87
2020/12/30 22:43:09;;;;;;;85.00;49.70;;;;;;;6.70;69.39;98150.91;251824;1133;114838;-85
2020/12/30 22:48:12;;;;;;;86.97;51.33;;;;;;;6.64;68.89;98147.68;251725;1133;114823;-84
2020/12/30 22:53:15;;;;;;;81.80;50.03;;;;;;;6.61;69.24;98139.94;251536;1133;115011;-86
2020/12/30 22:58:20;;;;;;;81.90;51.53;;;;;;;6.62;69.04;98136.37;251607;1134;115237;-85
2020/12/30 23:03:24;;;;;;;87.62;51.92;;;;;;;6.68;69.93;98136.92;251911;1132;117307;-84
2020/12/30 23:08:29;;;;;;;85.00;50.47;;;;;;;6.71;69.24;98144.67;251873;1132;115478;-85